Menno, South Dakota
Current Conditions -  °F | °C
As of 2:55 PM on Tuesday 25 Nov 2014 (Local Time) from KYKN Reporting Station
Clear Clear  
Wind Chill: 37°   Ceiling: Unl
Heat Index: 43°   Visibility: 10mi
Dew Point: 27°   Wind: 12mph
Humidity: 53%   Direction: 170°S
Pressure: 29.88"   Gusts: NA
Location:  43.24°N, 97.58°W
Report Text: KYKN 252055Z AUTO 17010KT 10SM CLR 06/M03 A2988 RMK AO1 57037
Loading
Personal Weather Stations






























Interactive Weather Map New forecast layout! Learn more

10-Day Weather Forecast

Advertisements
Track Severe Weather on mobile